Medien

ID Archiv Nummer Medium Interpret Medien-Titel Industrie Nummer Kategorie Erfasst Am Erfasst Von
97.110 13046 Single Vinyl Boz Scaggs Heart Of Mine CBS 38-07780 (USA 1988, Columbia) Keine 13.09.2011 15:17:34 Neurath, Till
47.079 13047 CD Allard Jazz Quartet Buwalda Together Innopao 85008-2 (NL 1992) Keine 13.03.2003 14:45:02 Konvertierung
12.058 13047 LP Tonio K. Notes From The Lost Civilization A And M 390 763 (BRD 1988) Keine 13.03.2003 14:45:02 Konvertierung
97.111 13047 Single Vinyl Boz Scaggs Look What You've Done To Me CBS 1-11349 (USA 1980, Columbia) Keine 13.09.2011 15:18:17 Neurath, Till
47.101 13048 CD Tanita Tikaram The Cappuchino Songs PolyGram 537 227-2 (BRD 1988, Mother) Keine 13.03.2003 14:45:02 Konvertierung
12.059 13048 LP Paul And The Messengers Kelly Gossip A And M 395 157 (BRD 1987) Keine 13.03.2003 14:45:02 Konvertierung
97.112 13048 Single Vinyl Scandal The Warrior CBS 38-04424 (USA 1984, Columbia) Keine 13.09.2011 15:19:09 Neurath, Till
47.102 13049 CD 702 No Doubt PolyGram 530 752-2 (GB 1996, BIV Ten) Keine 13.03.2003 14:45:02 Konvertierung
12.060 13049 LP Cherry Group Kirchgaessner Swingingpool Orix Ox 1020 (BRD) Keine 13.03.2003 14:45:02 Konvertierung
97.113 13049 Single Vinyl Scandal All My Life CBS 38-03234 (USA 1982, Columbia) Keine 13.09.2011 15:19:48 Neurath, Till
47.103 13050 CD Shed Seven Let It Ride PolyGram 557 359-2 (BRD 1998, Polydor) Keine 13.03.2003 14:45:02 Konvertierung
12.061 13050 LP Nick Kamen Nick Kamen WEA 242 080 (BRD 1987) Keine 13.03.2003 14:45:02 Konvertierung
97.114 13050 Single Vinyl Scandal Beat Of My Heart CBS 38-04750 (USA 1984, Columbia) Doppelte Platte 13.09.2011 15:20:23 Neurath, Till
47.109 13051 CD Bullyrag Songs Of Praise PolyGram 558 329-2 (BRD 1998, Mercury) Keine 13.03.2003 14:45:02 Konvertierung
12.062 13051 LP Kowalski Zigeunerbaron SPV 50-1499 (BRD 1987, Rebel Rec.) Keine 13.03.2003 14:45:02 Konvertierung
97.115 13051 Single Vinyl Scandal Love's Got A Line On You CBS 38-03615 (USA 1982, Columbia) Keine 13.09.2011 15:20:56 Neurath, Till
47.110 13052 CD Ringo Starr Vertical Man PolyGram 558 598-2 (BRD 1998, Mercury) archiv- Keine 13.03.2003 14:45:02 Konvertierung
12.063 13052 LP Kalkowski Tief Aus'm Bauch Ariola 208 630 (BRD 1987) Keine 13.03.2003 14:45:02 Konvertierung
97.116 13052 Single Vinyl Soundtrack The Greatest American Hero Warner Communications E-47147 (USA 1981, Elektra) Keine 13.09.2011 16:51:15 Neurath, Till
47.126 13053 CD Mad Sin Sweet & Innocent? Loud & Dirty! PolyGram 557 938-2 (BRD 1998, Bonanza) Keine 13.03.2003 14:45:02 Konvertierung
12.064 13053 LP Karat Fuenfte Jahreszeit Teldec 6.26396 AP (BRD 1987, Pool) Keine 13.03.2003 14:45:02 Konvertierung
97.119 13053 Single Vinyl Scarlet Fantastic No Memory BMG RIS 36 (GB 1987, Arista) Keine 13.09.2011 17:02:52 Neurath, Till
47.132 13054 CD Friedrich Küppersbusch Küppersbusch PolyGram 533 925-2 (BRD 1997, Motor Music) Keine 13.03.2003 14:45:02 Konvertierung
12.065 13054 LP Kinkina Jungle Fever Ariola DUM 633260 (BRD) Deutsche AustrophonB.C.12-2038-40 (BRD, BCM) Keine 13.03.2003 14:45:02 Konvertierung
97.117 13054 Single Vinyl Scarlett & Black You Don't Know WEA 7-99405 (USA 1987, Virgin) Keine 13.09.2011 16:59:23 Neurath, Till
47.137 13055 CD Ultra Nate Situation: Critical PolyGram 557 538-2 (BRD 1998, Strictly Rhythm) Keine 13.03.2003 14:45:02 Konvertierung
12.066 13055 LP Kahondo Style Green Tea And Crocodiles Nato 1279 (F) Keine 13.03.2003 14:45:02 Konvertierung
97.118 13055 Single Vinyl Hal Schaefer The RCA Jazz Workshop (Disc1) RCA EPC-1199-1 (BRD) Keine 13.09.2011 17:00:44 Neurath, Till
47.138 13056 CD Vanessa-Mae Toccata & Fugue EMI 7243 8 81681 20 (NL 1995) Keine 13.03.2003 14:45:02 Konvertierung
12.067 13056 LP Joachim Kuhn Time Exposure Entente 12-3072 (BRD 1987) Keine 15.06.2020 13:08:15 Konvertierung
97.120 13056 Single Vinyl Hal Schaefer The RCA Jazz Workshop (Disc 2) RCA EPC-1199-2 (BRD) Keine 13.09.2011 17:03:40 Neurath, Till
47.163 13057 CD Peter Frampton Greatest Hits PolyGram 540 557 2 (BRD 1998, A&M) Keine 13.03.2003 14:45:02 Konvertierung
12.068 13057 LP Eero Koivistoinen Picture In Three Colours Line COLP4.00515 (BRD 1988, Core) als CD vorhanden 13.03.2003 14:45:02 Konvertierung
97.121 13057 Single Vinyl Hal Schaefer The RCA Jazz Workshop (Disc 3) RCA EPC-1199-3 (BRD) Keine 13.09.2011 17:04:12 Neurath, Till
47.164 13058 CD The Neville Brothers Greatest Hits PolyGram 540 946-2 (BRD 1998, A%M) Keine 13.03.2003 14:45:02 Konvertierung
12.069 13058 LP Mark Knopfler The Princess Bride Phonogram 832 864 (NL 1987, Vertigo) Keine 13.03.2003 14:45:02 Konvertierung
97.122 13058 Single Vinyl Tana Schanzara Vatter, aufsteh'n! BASF 05 10478-2 (BRD, Cornet 3204) Keine 13.09.2011 17:04:50 Neurath, Till
47.166 13059 CD Lori Carson Where It Goes Restless 7 72787 2 (Taiwan 1995, MED-101) Keine 13.03.2003 14:45:02 Konvertierung
12.070 13059 LP Kings Of The Sun Kings Of The Sun RCA PL86826 (BRD 1988) Keine 13.03.2003 14:45:02 Konvertierung
97.123 13059 Single Vinyl Werner Scharfenberger Zwei so blitzblanke Augen Tempo 508 (BRD) Keine 13.09.2011 17:06:40 Neurath, Till
47.167 13060 CD John Mellencamp Mr. Happy Go Lucky PolyGram 532 896 2 (BRD 1996, Mercury) Keine 13.03.2003 14:45:02 Konvertierung
12.071 13060 LP Kingdom Come Kingdom Come Polydor 835 368 (BRD 1988) Keine 13.03.2003 14:45:02 Konvertierung
97.124 13060 Single Vinyl Werner Scharfenberger Es hängt ein Pferdehalfter Tempo 583 (BRD) Keine 13.09.2011 17:08:23 Neurath, Till
47.168 13061 CD Blur Parklife EMI 7243 8 29194 21 (GB 1994, Food) Keine 13.03.2003 14:45:02 Konvertierung
12.072 13061 LP Kiss Crazy Nights Phonogram 832846 (NL 1987, Mercury) Keine 13.03.2003 14:45:02 Konvertierung
97.125 13061 Single Vinyl Die Schaumburger Märchensänger Der fröhliche Wanderer Odeon OBL 1078 (BRD) Keine 13.09.2011 17:09:08 Neurath, Till
47.169 13062 CD Eric Band Gales The Eric Gales Band WEA 9 61083-2 (USA 1991, Elektra) Keine 13.03.2003 14:45:02 Konvertierung
12.073 13062 LP Arny And The Bluesbear Band Kay Rockin The Blues Synton BLD 705 (BRD) Keine 13.03.2003 14:45:02 Konvertierung
97.126 13062 Single Vinyl Schellerer-Sextett Soft Winds A La Schwabing Telefunken UX 4915 (BRD) Keine 13.09.2011 17:10:24 Neurath, Till
47.170 13063 CD Sara Hickman Necessary Angels WEA 1046 77010 2 (USA 1994, Discovery 77010) Keine 13.03.2003 14:45:02 Konvertierung